createdAt,value
2018-10-21T00:01:04.093Z,0.00
2018-10-21T00:02:04.396Z,0.00
2018-10-21T00:03:04.719Z,0.00
2018-10-21T00:04:04.295Z,0.00
2018-10-21T00:05:25.875Z,0.00
2018-10-21T00:07:08.637Z,0.00
2018-10-21T00:08:30.377Z,0.00
2018-10-21T00:09:30.658Z,0.00
2018-10-21T00:10:31.047Z,0.00
2018-10-21T00:11:30.693Z,0.00
2018-10-21T00:12:31.173Z,0.00
2018-10-21T00:13:30.614Z,0.00
2018-10-21T00:14:52.368Z,0.00
2018-10-21T00:15:52.789Z,0.00
2018-10-21T00:16:53.178Z,0.00
2018-10-21T00:17:52.457Z,0.00
2018-10-21T00:18:52.982Z,0.00
2018-10-21T00:19:52.376Z,0.00
2018-10-21T00:21:34.636Z,0.00
2018-10-21T00:22:35.394Z,0.00
2018-10-21T00:23:34.965Z,0.00
2018-10-21T00:24:35.396Z,0.00
2018-10-21T00:25:34.850Z,0.00
2018-10-21T00:26:35.327Z,0.00
2018-10-21T00:27:35.628Z,0.00
2018-10-21T00:28:34.953Z,0.00
2018-10-21T00:29:56.579Z,0.00
2018-10-21T00:30:57.055Z,0.00
2018-10-21T00:31:56.770Z,0.00
2018-10-21T00:32:57.285Z,0.00
2018-10-21T00:33:56.645Z,0.00
2018-10-21T00:34:56.976Z,0.00
2018-10-21T00:35:57.291Z,0.00
2018-10-21T00:36:56.792Z,0.00
2018-10-21T00:38:18.496Z,0.00
2018-10-21T00:39:39.908Z,0.00
2018-10-21T00:41:24.127Z,0.00
2018-10-21T00:42:24.502Z,0.00
2018-10-21T00:43:25.115Z,0.00
2018-10-21T00:44:24.513Z,0.00
2018-10-21T00:46:07.159Z,0.00
2018-10-21T00:47:07.457Z,0.00
2018-10-21T00:48:07.601Z,0.00
2018-10-21T00:49:08.086Z,0.00
2018-10-21T00:50:07.702Z,0.00
2018-10-21T00:51:08.254Z,0.00
2018-10-21T00:52:07.754Z,0.00
2018-10-21T00:53:07.301Z,0.00
2018-10-21T00:54:29.822Z,0.00
2018-10-21T00:55:29.262Z,0.00
2018-10-21T00:56:29.796Z,0.00
2018-10-21T00:57:50.473Z,0.00
2018-10-21T00:59:12.457Z,0.00
2018-10-21T01:00:12.896Z,0.00
2018-10-21T01:01:49.595Z,0.00
2018-10-21T01:02:38.588Z,0.00
2018-10-21T01:03:37.827Z,0.00
2018-10-21T01:04:58.407Z,0.00
2018-10-21T01:05:58.602Z,0.00
2018-10-21T01:07:20.613Z,0.00
2018-10-21T01:08:21.009Z,0.00
2018-10-21T01:09:21.326Z,0.00
2018-10-21T01:10:20.680Z,0.00
2018-10-21T01:11:21.047Z,0.00
2018-10-21T01:12:20.677Z,0.00
2018-10-21T01:13:20.996Z,0.00
2018-10-21T01:14:42.519Z,0.00
2018-10-21T01:15:42.944Z,0.00
2018-10-21T01:17:03.453Z,0.00
2018-10-21T01:18:04.106Z,0.00
2018-10-21T01:19:24.596Z,0.00
2018-10-21T01:20:25.171Z,0.00
2018-10-21T01:21:25.648Z,0.00
2018-10-21T01:22:24.992Z,0.00
2018-10-21T01:23:25.409Z,0.00
2018-10-21T01:24:24.745Z,0.00
2018-10-21T01:25:25.207Z,0.00
2018-10-21T01:26:24.646Z,0.00
2018-10-21T01:27:24.789Z,0.00
2018-10-21T01:28:25.308Z,0.00
2018-10-21T01:29:24.893Z,0.00
2018-10-21T01:30:25.354Z,0.00
2018-10-21T01:31:24.629Z,0.00
2018-10-21T01:32:25.036Z,0.00
2018-10-21T01:33:25.516Z,0.00
2018-10-21T01:34:25.096Z,0.00
2018-10-21T01:35:25.443Z,0.00
2018-10-21T01:36:25.120Z,0.00
2018-10-21T01:37:24.932Z,0.00
2018-10-21T01:38:25.676Z,0.00
2018-10-21T01:39:25.098Z,0.00
2018-10-21T01:40:25.474Z,0.00
2018-10-21T01:41:25.029Z,0.00
2018-10-21T01:42:46.733Z,0.00
2018-10-21T01:43:47.062Z,0.00
2018-10-21T01:44:47.382Z,0.00
2018-10-21T01:45:46.967Z,0.00
2018-10-21T01:46:47.311Z,0.00
2018-10-21T01:48:09.027Z,0.00
2018-10-21T01:49:09.482Z,0.00
2018-10-21T01:50:09.104Z,0.00
2018-10-21T01:51:30.681Z,0.00
2018-10-21T01:52:52.354Z,0.00
2018-10-21T01:53:52.877Z,0.00
2018-10-21T01:54:53.327Z,0.00
2018-10-21T01:55:52.967Z,0.00
2018-10-21T01:56:52.519Z,0.00
2018-10-21T01:58:14.304Z,0.00
2018-10-21T01:59:57.250Z,0.00
2018-10-21T02:00:57.773Z,0.00
2018-10-21T02:01:57.131Z,0.00
2018-10-21T02:02:57.557Z,0.00
2018-10-21T02:03:58.082Z,0.00
2018-10-21T02:05:29.884Z,0.00
2018-10-21T02:06:30.557Z,0.00
2018-10-21T02:07:30.128Z,0.00
2018-10-21T02:08:30.549Z,0.00
2018-10-21T02:10:35.483Z,0.00
2018-10-21T02:11:35.008Z,0.00
2018-10-21T02:12:35.574Z,0.00
2018-10-21T02:13:35.178Z,0.00
2018-10-21T02:14:35.551Z,0.00
2018-10-21T02:15:35.118Z,0.00
2018-10-21T02:16:35.673Z,0.00
2018-10-21T02:17:35.000Z,0.00
2018-10-21T02:18:35.410Z,0.00
2018-10-21T02:19:34.946Z,0.00
2018-10-21T02:20:35.338Z,0.00
2018-10-21T02:21:34.769Z,0.00
2018-10-21T02:22:47.036Z,0.00
2018-10-21T02:24:08.508Z,0.00
2018-10-21T02:25:51.383Z,0.00
2018-10-21T02:26:51.671Z,0.00
2018-10-21T02:27:52.049Z,0.00
2018-10-21T02:28:51.561Z,0.00
2018-10-21T02:29:51.918Z,0.00
2018-10-21T02:30:52.281Z,0.00
2018-10-21T02:31:51.449Z,0.00
2018-10-21T02:32:52.024Z,0.00
2018-10-21T02:33:51.638Z,0.00
2018-10-21T02:34:52.011Z,0.00
2018-10-21T02:36:13.407Z,0.00
2018-10-21T02:37:13.551Z,0.00
2018-10-21T02:38:14.065Z,0.00
2018-10-21T02:39:13.503Z,0.00
2018-10-21T02:40:56.325Z,0.00
2018-10-21T02:41:57.452Z,0.00
2018-10-21T02:42:56.630Z,0.00
2018-10-21T02:44:18.083Z,0.00
2018-10-21T02:45:18.543Z,0.00
2018-10-21T02:46:18.837Z,0.00
2018-10-21T02:47:39.345Z,0.00
2018-10-21T02:49:00.519Z,0.00
2018-10-21T02:50:00.865Z,0.00
2018-10-21T02:51:01.161Z,0.00
2018-10-21T02:52:00.711Z,0.00
2018-10-21T02:53:01.325Z,0.00
2018-10-21T02:54:00.827Z,0.00
2018-10-21T02:55:22.449Z,0.00
2018-10-21T02:56:22.940Z,0.00
2018-10-21T02:57:22.439Z,0.00
2018-10-21T02:58:22.906Z,0.00
2018-10-21T02:59:43.651Z,0.00
2018-10-21T03:01:26.204Z,0.00
2018-10-21T03:02:26.834Z,0.00
2018-10-21T03:03:48.258Z,0.00
2018-10-21T03:04:48.680Z,0.00
2018-10-21T03:05:48.952Z,0.00
2018-10-21T03:06:48.655Z,0.00
2018-10-21T03:07:49.008Z,0.00
2018-10-21T03:08:48.190Z,0.00
2018-10-21T03:09:48.506Z,0.00
2018-10-21T03:10:49.192Z,0.00
2018-10-21T03:11:48.723Z,0.00
2018-10-21T03:12:49.043Z,0.00
2018-10-21T03:13:48.488Z,0.00
2018-10-21T03:14:48.946Z,0.00
2018-10-21T03:15:48.349Z,0.00
2018-10-21T03:16:48.745Z,0.00
2018-10-21T03:17:48.340Z,0.00
2018-10-21T03:18:48.515Z,0.00
2018-10-21T03:19:48.794Z,0.00
2018-10-21T03:20:48.886Z,0.00
2018-10-21T03:21:48.289Z,0.00
2018-10-21T03:22:18.265Z,0.00
2018-10-21T03:23:18.666Z,0.00
2018-10-21T03:24:19.220Z,0.00
2018-10-21T03:25:18.842Z,0.00
2018-10-21T03:26:18.371Z,0.00
2018-10-21T03:27:18.980Z,0.00
2018-10-21T03:28:18.554Z,0.00
2018-10-21T03:29:40.231Z,0.00
2018-10-21T03:30:40.663Z,0.00
2018-10-21T03:31:41.004Z,0.00
2018-10-21T03:32:40.566Z,0.00
2018-10-21T03:33:41.202Z,0.00
2018-10-21T03:34:40.999Z,0.00
2018-10-21T03:36:01.714Z,0.00
2018-10-21T03:37:02.232Z,0.00
2018-10-21T03:38:01.816Z,0.00
2018-10-21T03:39:02.420Z,0.00
2018-10-21T03:40:01.820Z,0.00
2018-10-21T03:41:23.210Z,0.00
2018-10-21T03:42:23.914Z,0.00
2018-10-21T03:43:23.346Z,0.00
2018-10-21T03:44:44.907Z,0.00
2018-10-21T03:46:06.236Z,0.00
2018-10-21T03:47:06.574Z,0.00
2018-10-21T03:48:06.834Z,0.00
2018-10-21T03:49:06.268Z,0.00
2018-10-21T03:50:06.749Z,0.00
2018-10-21T03:51:07.181Z,0.00
2018-10-21T03:52:06.605Z,0.00
2018-10-21T03:53:51.162Z,0.00
2018-10-21T03:54:51.418Z,0.00
2018-10-21T03:55:51.668Z,0.00
2018-10-21T03:56:52.131Z,0.00
2018-10-21T03:57:51.315Z,0.00
2018-10-21T03:58:51.745Z,0.00
2018-10-21T04:00:13.100Z,0.00
2018-10-21T04:01:34.514Z,0.00
2018-10-21T04:02:34.734Z,0.00
2018-10-21T04:03:56.161Z,0.00
2018-10-21T04:04:56.391Z,0.00
2018-10-21T04:05:56.882Z,0.00
2018-10-21T04:06:56.108Z,0.00
2018-10-21T04:07:56.189Z,0.00
2018-10-21T04:08:56.219Z,0.00
2018-10-21T04:09:56.564Z,0.00
2018-10-21T04:10:56.871Z,0.00
2018-10-21T04:12:17.187Z,0.00
2018-10-21T04:13:17.541Z,0.00
2018-10-21T04:14:17.706Z,0.00
2018-10-21T04:15:18.011Z,0.00
2018-10-21T04:16:17.510Z,0.00
2018-10-21T04:17:17.254Z,0.00
2018-10-21T04:18:18.066Z,0.00
2018-10-21T04:19:17.497Z,0.00
2018-10-21T04:20:17.730Z,0.00
2018-10-21T04:21:17.255Z,0.00
2018-10-21T04:22:17.648Z,0.00
2018-10-21T04:23:17.299Z,0.00
2018-10-21T04:24:17.867Z,0.00
2018-10-21T04:25:38.351Z,0.00
2018-10-21T04:26:38.794Z,0.00
2018-10-21T04:28:21.196Z,0.00
2018-10-21T04:29:21.583Z,0.00
2018-10-21T04:30:42.909Z,0.00
2018-10-21T04:31:43.381Z,0.00
2018-10-21T04:32:43.514Z,0.00
2018-10-21T04:34:04.275Z,0.00
2018-10-21T04:35:25.476Z,0.00
2018-10-21T04:36:25.875Z,0.00
2018-10-21T04:37:26.485Z,0.00
2018-10-21T04:38:46.951Z,0.00
2018-10-21T04:39:47.436Z,0.00
2018-10-21T04:40:47.508Z,0.00
2018-10-21T04:41:47.783Z,0.00
2018-10-21T04:42:47.186Z,0.00
2018-10-21T04:43:47.346Z,0.00
2018-10-21T04:44:47.600Z,0.00
2018-10-21T04:45:47.049Z,0.00
2018-10-21T04:46:47.293Z,0.00
2018-10-21T04:47:47.027Z,0.00
2018-10-21T04:48:47.485Z,0.00
2018-10-21T04:49:47.027Z,0.00
2018-10-21T04:50:47.307Z,0.00
2018-10-21T04:51:47.837Z,0.00
2018-10-21T04:52:47.106Z,0.00
2018-10-21T04:53:47.449Z,0.00
2018-10-21T04:54:46.819Z,0.00
2018-10-21T04:55:47.141Z,0.00
2018-10-21T04:56:47.548Z,0.00
2018-10-21T04:57:47.127Z,0.00
2018-10-21T04:58:47.560Z,0.00
2018-10-21T04:59:46.657Z,0.00
2018-10-21T05:00:47.268Z,0.00
2018-10-21T05:01:47.734Z,0.00
2018-10-21T05:02:47.088Z,0.00
2018-10-21T05:03:47.467Z,0.00
2018-10-21T05:04:46.905Z,0.00
2018-10-21T05:05:47.477Z,0.00
2018-10-21T05:06:46.645Z,0.00
2018-10-21T05:07:47.143Z,0.00
2018-10-21T05:08:47.400Z,0.00
2018-10-21T05:09:47.561Z,0.00
2018-10-21T05:10:46.951Z,0.00
2018-10-21T05:11:47.404Z,0.00
2018-10-21T05:12:47.755Z,0.00
2018-10-21T05:13:46.786Z,0.00
2018-10-21T05:14:47.097Z,0.00
2018-10-21T05:15:47.384Z,0.00
2018-10-21T05:16:47.845Z,0.00
2018-10-21T05:17:47.214Z,0.00
2018-10-21T05:18:47.558Z,0.00
2018-10-21T05:19:46.941Z,0.00
2018-10-21T05:20:47.263Z,0.00
2018-10-21T05:21:47.684Z,0.00
2018-10-21T05:22:46.728Z,0.00
2018-10-21T05:23:47.321Z,1.00
2018-10-21T05:24:47.781Z,1.00
2018-10-21T05:25:47.169Z,0.00
2018-10-21T05:26:47.421Z,1.00
2018-10-21T05:27:46.633Z,1.00
2018-10-21T05:28:46.976Z,1.00
2018-10-21T05:29:47.346Z,2.00
2018-10-21T05:30:46.901Z,1.00
2018-10-21T05:31:47.217Z,2.00
2018-10-21T05:32:47.750Z,2.00
2018-10-21T05:34:08.398Z,2.00
2018-10-21T05:35:08.712Z,3.00
2018-10-21T05:36:09.062Z,4.00
2018-10-21T05:37:08.411Z,5.00
2018-10-21T05:38:08.821Z,5.00
2018-10-21T05:39:31.030Z,7.00
2018-10-21T05:40:31.359Z,8.00
2018-10-21T05:41:52.968Z,11.00
2018-10-21T05:42:53.465Z,14.00
2018-10-21T05:44:14.688Z,17.00
2018-10-21T05:45:14.992Z,19.00
2018-10-21T05:46:15.433Z,23.00
2018-10-21T05:47:15.173Z,26.00
2018-10-21T05:48:15.832Z,30.00
2018-10-21T05:49:15.268Z,35.00
2018-10-21T05:50:36.971Z,41.00
2018-10-21T05:51:37.622Z,47.00
2018-10-21T05:52:37.081Z,52.00
2018-10-21T05:53:37.389Z,59.00
2018-10-21T05:54:59.106Z,68.00
2018-10-21T05:55:59.432Z,77.00
2018-10-21T05:56:59.820Z,86.00
2018-10-21T05:57:59.181Z,97.00
2018-10-21T05:59:20.774Z,112.00
2018-10-21T06:00:21.205Z,123.00
2018-10-21T06:01:21.700Z,133.00
2018-10-21T06:02:21.181Z,143.00
2018-10-21T06:03:21.620Z,154.00
2018-10-21T06:04:21.030Z,165.00
2018-10-21T06:05:21.293Z,176.00
2018-10-21T06:06:21.651Z,187.00
2018-10-21T06:07:21.188Z,198.00
2018-10-21T06:08:21.532Z,208.00
2018-10-21T06:09:42.329Z,224.00
2018-10-21T06:11:03.806Z,243.00
2018-10-21T06:12:04.349Z,260.00
2018-10-21T06:13:25.075Z,281.00
2018-10-21T06:14:25.342Z,299.00
2018-10-21T06:15:25.777Z,313.00
2018-10-21T06:16:25.483Z,333.00
2018-10-21T06:17:26.073Z,351.00
2018-10-21T06:18:25.657Z,374.00
2018-10-21T06:19:25.291Z,397.00
2018-10-21T06:20:25.942Z,423.00
2018-10-21T06:21:25.527Z,451.00
2018-10-21T06:22:26.141Z,483.00
2018-10-21T06:23:46.843Z,524.00
2018-10-21T06:24:47.364Z,548.00
2018-10-21T06:25:46.851Z,572.00
2018-10-21T06:26:47.483Z,600.00
2018-10-21T06:27:47.010Z,631.00
2018-10-21T06:28:47.591Z,662.00
2018-10-21T06:29:46.940Z,694.00
2018-10-21T06:31:08.964Z,740.00
2018-10-21T06:32:09.565Z,771.00
2018-10-21T06:33:30.490Z,812.00
2018-10-21T06:34:31.047Z,849.00
2018-10-21T06:35:30.752Z,888.00
2018-10-21T06:36:30.945Z,925.00
2018-10-21T06:37:30.638Z,959.00
2018-10-21T06:38:31.305Z,1003.00
2018-10-21T06:39:30.925Z,1076.00
2018-10-21T06:40:30.432Z,1183.00
2018-10-21T06:41:31.135Z,1290.00
2018-10-21T06:42:30.658Z,1382.00
2018-10-21T06:43:30.211Z,1451.00
2018-10-21T06:44:52.401Z,1545.00
2018-10-21T06:45:53.112Z,1619.00
2018-10-21T06:46:52.620Z,1716.00
2018-10-21T06:47:53.112Z,1798.00
2018-10-21T06:49:14.093Z,1931.00
2018-10-21T06:50:14.760Z,2004.00
2018-10-21T06:51:14.613Z,2070.00
2018-10-21T06:52:14.336Z,2151.00
2018-10-21T06:53:14.865Z,2222.00
2018-10-21T06:54:14.490Z,2327.00
2018-10-21T06:55:14.977Z,2455.00
2018-10-21T06:56:14.562Z,2583.00
2018-10-21T06:57:14.480Z,2691.00
2018-10-21T06:58:14.252Z,2814.00
2018-10-21T06:59:15.029Z,2922.00
2018-10-21T07:00:36.021Z,3016.00
2018-10-21T07:01:36.402Z,3039.00
2018-10-21T07:02:36.875Z,3063.00
2018-10-21T07:03:36.366Z,3096.00
2018-10-21T07:04:36.198Z,3160.00
2018-10-21T07:05:35.813Z,3240.00
2018-10-21T07:06:36.433Z,3332.00
2018-10-21T07:08:42.488Z,3444.00
2018-10-21T07:09:43.130Z,3456.00
2018-10-21T07:10:44.918Z,3476.00
2018-10-21T07:11:42.661Z,3498.00
2018-10-21T07:12:43.323Z,3565.00
2018-10-21T07:13:42.926Z,3643.00
2018-10-21T07:14:42.741Z,3747.00
2018-10-21T07:15:43.564Z,3832.00
2018-10-21T07:16:43.344Z,3930.00
2018-10-21T07:17:43.272Z,4049.00
2018-10-21T07:18:42.894Z,4153.00
2018-10-21T07:19:42.474Z,4243.00
2018-10-21T07:20:43.244Z,4281.00
2018-10-21T07:21:42.673Z,4284.00
2018-10-21T07:22:43.452Z,4261.00
2018-10-21T07:23:43.247Z,4267.00
2018-10-21T07:24:42.918Z,4297.00
2018-10-21T07:25:43.287Z,4331.00
2018-10-21T07:26:42.865Z,4352.00
2018-10-21T07:27:42.641Z,4357.00
2018-10-21T07:28:42.456Z,4368.00
2018-10-21T07:30:04.538Z,4425.00
2018-10-21T07:31:27.193Z,4473.00
2018-10-21T07:32:26.946Z,4524.00
2018-10-21T07:33:27.486Z,4563.00
2018-10-21T07:34:27.052Z,4616.00
2018-10-21T07:35:49.318Z,4699.00
2018-10-21T07:36:50.174Z,4775.00
2018-10-21T07:37:49.815Z,4822.00
2018-10-21T07:38:49.328Z,4880.00
2018-10-21T07:39:49.980Z,4927.00
2018-10-21T07:40:49.617Z,4975.00
2018-10-21T07:42:10.889Z,5099.00
2018-10-21T07:43:11.608Z,5271.00
2018-10-21T07:44:11.400Z,5441.00
2018-10-21T07:45:59.403Z,5620.00
2018-10-21T07:47:00.175Z,5672.00
2018-10-21T07:47:59.685Z,5723.00
2018-10-21T07:48:59.420Z,5750.00
2018-10-21T07:50:00.187Z,5795.00
2018-10-21T07:50:59.955Z,5805.00
2018-10-21T07:51:59.869Z,5763.00
2018-10-21T07:52:59.631Z,5696.00
2018-10-21T07:53:59.448Z,5640.00
2018-10-21T07:55:00.061Z,5532.00
2018-10-21T07:56:21.332Z,5478.00
2018-10-21T07:57:21.994Z,5491.00
2018-10-21T07:58:21.734Z,5550.00
2018-10-21T07:59:21.499Z,5623.00
2018-10-21T08:00:22.200Z,5673.00
2018-10-21T08:01:22.061Z,5715.00
2018-10-21T08:02:21.972Z,5797.00
2018-10-21T08:03:21.730Z,5891.00
2018-10-21T08:04:21.451Z,6011.00
2018-10-21T08:05:43.595Z,6183.00
2018-10-21T08:07:05.310Z,6280.00
2018-10-21T08:08:05.811Z,6322.00
2018-10-21T08:09:05.679Z,6382.00
2018-10-21T08:10:05.321Z,6441.00
2018-10-21T08:11:05.718Z,6527.00
2018-10-21T08:12:05.347Z,6596.00
2018-10-21T08:13:06.305Z,6673.00
2018-10-21T08:14:05.948Z,6702.00
2018-10-21T08:15:05.788Z,6724.00
2018-10-21T08:16:05.282Z,6687.00
2018-10-21T08:17:06.056Z,6682.00
2018-10-21T08:18:27.216Z,6751.00
2018-10-21T08:19:28.058Z,6863.00
2018-10-21T08:20:27.944Z,6976.00
2018-10-21T08:21:27.532Z,7061.00
2018-10-21T08:22:27.252Z,7156.00
2018-10-21T08:23:27.812Z,7239.00
2018-10-21T08:24:27.787Z,7364.00
2018-10-21T08:25:27.444Z,7478.00
2018-10-21T08:26:28.191Z,7626.00
2018-10-21T08:27:27.772Z,7756.00
2018-10-21T08:28:49.239Z,7962.00
2018-10-21T08:29:48.820Z,8117.00
2018-10-21T08:30:49.593Z,8316.00
2018-10-21T08:31:50.252Z,8416.00
2018-10-21T08:32:48.973Z,8426.00
2018-10-21T08:33:50.001Z,8431.00
2018-10-21T08:34:49.829Z,8470.00
2018-10-21T08:35:49.570Z,8598.00
2018-10-21T08:36:49.495Z,8781.00
2018-10-21T08:37:49.707Z,8964.00
2018-10-21T08:38:49.331Z,9094.00
2018-10-21T08:39:49.040Z,9228.00
2018-10-21T08:40:50.511Z,9431.00
2018-10-21T08:41:49.178Z,9682.00
2018-10-21T08:42:49.705Z,9986.00
2018-10-21T08:43:49.203Z,10211.00
2018-10-21T08:44:49.737Z,10461.00
2018-10-21T08:45:50.543Z,10639.00
2018-10-21T08:46:49.804Z,10822.00
2018-10-21T08:47:50.629Z,11008.00
2018-10-21T08:48:49.427Z,11233.00
2018-10-21T08:50:13.011Z,11450.00
2018-10-21T08:51:14.156Z,11474.00
2018-10-21T08:52:13.743Z,11422.00
2018-10-21T08:53:37.049Z,11303.00
2018-10-21T08:54:35.760Z,11324.00
2018-10-21T08:55:35.676Z,11504.00
2018-10-21T08:56:35.356Z,11791.00
2018-10-21T08:57:35.221Z,12169.00
2018-10-21T08:58:35.141Z,12619.00
2018-10-21T08:59:35.753Z,13069.00
2018-10-21T09:00:35.644Z,13482.00
2018-10-21T09:01:35.813Z,13795.00
2018-10-21T09:02:35.709Z,13992.00
2018-10-21T09:03:35.532Z,14166.00
2018-10-21T09:04:35.378Z,14305.00
2018-10-21T09:05:35.008Z,14355.00
2018-10-21T09:06:35.937Z,14379.00
2018-10-21T09:07:57.627Z,14335.00
2018-10-21T09:08:58.197Z,14438.00
2018-10-21T09:09:58.239Z,14619.00
2018-10-21T09:10:58.114Z,14802.00
2018-10-21T09:11:58.089Z,14939.00
2018-10-21T09:12:57.868Z,15106.00
2018-10-21T09:13:57.651Z,15178.00
2018-10-21T09:14:58.496Z,15309.00
2018-10-21T09:15:58.352Z,15164.00
2018-10-21T09:16:58.051Z,14933.00
2018-10-21T09:17:57.934Z,14876.00
2018-10-21T09:18:57.797Z,14914.00
2018-10-21T09:19:58.469Z,14969.00
2018-10-21T09:20:58.344Z,14945.00
2018-10-21T09:21:57.900Z,14866.00
2018-10-21T09:22:57.689Z,14657.00
2018-10-21T09:23:57.599Z,14551.00
2018-10-21T09:24:57.639Z,14503.00
2018-10-21T09:25:58.430Z,14452.00
2018-10-21T09:27:21.995Z,14428.00
2018-10-21T09:28:22.014Z,14419.00
2018-10-21T09:29:22.696Z,14319.00
2018-10-21T09:30:22.727Z,14203.00
2018-10-21T09:31:44.073Z,14098.00
2018-10-21T09:32:44.770Z,14179.00
2018-10-21T09:33:44.335Z,14346.00
2018-10-21T09:34:45.917Z,14578.00
2018-10-21T09:35:45.417Z,14833.00
2018-10-21T09:37:10.540Z,15343.00
2018-10-21T09:38:11.377Z,15796.00
2018-10-21T09:39:11.012Z,16264.00
2018-10-21T09:40:10.046Z,16822.00
2018-10-21T09:41:31.595Z,17736.00
2018-10-21T09:42:31.619Z,18184.00
2018-10-21T09:43:32.715Z,18472.00
2018-10-21T09:44:31.594Z,18680.00
2018-10-21T09:45:32.423Z,18896.00
2018-10-21T09:46:32.038Z,19200.00
2018-10-21T09:47:31.825Z,19656.00
2018-10-21T09:48:31.876Z,20032.00
2018-10-21T09:49:31.695Z,20328.00
2018-10-21T09:50:31.688Z,20528.00
2018-10-21T09:51:31.455Z,20488.00
2018-10-21T09:52:32.289Z,20392.00
2018-10-21T09:53:32.123Z,20184.00
2018-10-21T09:54:32.095Z,20056.00
2018-10-21T09:55:32.107Z,19928.00
2018-10-21T09:56:31.791Z,19816.00
2018-10-21T09:57:31.865Z,19760.00
2018-10-21T09:58:31.880Z,19832.00
2018-10-21T09:59:31.623Z,20256.00
2018-10-21T10:00:31.657Z,21328.00
2018-10-21T10:01:54.193Z,30256.00
2018-10-21T10:02:55.007Z,27752.00
2018-10-21T10:03:55.088Z,23696.00
2018-10-21T10:05:17.314Z,23016.00
2018-10-21T10:06:17.177Z,20720.00
2018-10-21T10:07:40.857Z,18464.00
2018-10-21T10:08:40.877Z,17744.00
2018-10-21T10:09:41.729Z,17992.00
2018-10-21T10:11:05.154Z,18752.00
2018-10-21T10:12:05.095Z,18544.00
2018-10-21T10:13:05.974Z,18968.00
2018-10-21T10:14:05.832Z,20536.00
2018-10-21T10:15:05.768Z,23872.00
2018-10-21T10:16:05.946Z,23832.00
2018-10-21T10:17:05.984Z,21984.00
2018-10-21T10:18:05.887Z,20232.00
2018-10-21T10:19:05.881Z,19600.00
2018-10-21T10:20:27.562Z,19368.00
2018-10-21T10:21:28.300Z,18976.00
2018-10-21T10:22:28.065Z,18624.00
2018-10-21T10:23:27.943Z,18080.00
2018-10-21T10:24:27.763Z,17608.00
2018-10-21T10:25:28.371Z,18120.00
2018-10-21T10:26:28.368Z,19272.00
2018-10-21T10:27:28.546Z,20312.00
2018-10-21T10:28:28.400Z,19472.00
2018-10-21T10:29:50.457Z,18504.00
2018-10-21T10:30:50.151Z,18280.00
2018-10-21T10:31:50.115Z,20936.00
2018-10-21T10:32:49.913Z,25264.00
2018-10-21T10:33:50.655Z,26952.00
2018-10-21T10:34:50.343Z,28336.00
2018-10-21T10:35:49.966Z,26528.00
2018-10-21T10:37:33.350Z,28344.00
2018-10-21T10:38:56.797Z,29448.00
2018-10-21T10:39:57.683Z,29648.00
2018-10-21T10:40:57.733Z,32376.00
2018-10-21T10:41:58.088Z,31624.00
2018-10-21T10:42:57.114Z,31120.00
2018-10-21T10:43:56.833Z,27640.00
2018-10-21T10:44:57.755Z,26480.00
2018-10-21T10:45:58.051Z,26352.00
2018-10-21T10:46:56.883Z,27800.00
2018-10-21T10:47:57.712Z,25984.00
2018-10-21T10:48:57.820Z,25136.00
2018-10-21T10:49:57.639Z,25400.00
2018-10-21T10:50:57.539Z,25584.00
2018-10-21T10:51:57.772Z,26328.00
2018-10-21T10:53:41.451Z,27496.00
2018-10-21T10:54:41.800Z,27784.00
2018-10-21T10:55:41.833Z,28272.00
2018-10-21T10:56:41.679Z,28904.00
2018-10-21T10:57:41.742Z,31368.00
2018-10-21T10:58:41.880Z,34520.00
2018-10-21T10:59:41.740Z,32128.00
2018-10-21T11:00:41.797Z,31680.00
2018-10-21T11:01:41.655Z,32272.00
2018-10-21T11:02:41.519Z,31200.00
2018-10-21T11:03:41.384Z,30040.00
2018-10-21T11:04:41.440Z,28224.00
2018-10-21T11:05:41.391Z,27448.00
2018-10-21T11:06:41.368Z,27624.00
2018-10-21T11:07:41.304Z,27624.00
2018-10-21T11:08:41.454Z,27816.00
2018-10-21T11:09:41.365Z,28264.00
2018-10-21T11:10:41.170Z,28952.00
2018-10-21T11:11:41.022Z,34624.00
2018-10-21T11:12:41.737Z,33152.00
2018-10-21T11:13:41.685Z,33208.00
2018-10-21T11:14:42.683Z,31880.00
2018-10-21T11:16:05.396Z,33624.00
2018-10-21T11:17:05.512Z,34224.00
2018-10-21T11:18:06.308Z,34856.00
2018-10-21T11:19:06.545Z,36248.00
2018-10-21T11:20:28.889Z,36456.00
2018-10-21T11:21:29.850Z,35056.00
2018-10-21T11:22:29.910Z,31520.00
2018-10-21T11:23:51.305Z,30112.00
2018-10-21T11:25:16.214Z,30200.00
2018-10-21T11:26:17.016Z,30760.00
2018-10-21T11:27:17.269Z,30256.00
2018-10-21T11:28:17.119Z,29216.00
2018-10-21T11:29:16.378Z,28992.00
2018-10-21T11:30:16.152Z,28960.00
2018-10-21T11:31:16.440Z,31856.00
2018-10-21T11:32:16.678Z,29904.00
2018-10-21T11:33:16.757Z,30456.00
2018-10-21T11:34:40.373Z,31456.00
2018-10-21T11:35:41.214Z,30328.00
2018-10-21T11:36:41.202Z,29120.00
2018-10-21T11:37:41.094Z,28144.00
2018-10-21T11:38:41.301Z,27232.00
2018-10-21T11:39:41.240Z,27328.00
2018-10-21T11:41:50.154Z,28208.00
2018-10-21T11:43:12.937Z,27872.00
2018-10-21T11:44:12.882Z,29232.00
2018-10-21T11:45:13.535Z,29904.00
2018-10-21T11:46:13.415Z,32272.00
2018-10-21T11:47:13.424Z,28728.00
2018-10-21T11:48:13.368Z,28552.00
2018-10-21T11:49:13.472Z,28240.00
2018-10-21T11:50:13.526Z,29600.00
2018-10-21T11:51:13.545Z,29928.00
2018-10-21T11:52:13.768Z,32848.00
2018-10-21T11:53:14.184Z,35160.00
2018-10-21T11:54:12.897Z,37288.00
2018-10-21T11:55:12.828Z,37256.00
2018-10-21T11:56:12.797Z,39992.00
2018-10-21T11:57:59.284Z,37472.00
2018-10-21T11:59:00.143Z,34304.00
2018-10-21T12:00:21.736Z,34072.00
2018-10-21T12:01:22.658Z,31944.00
2018-10-21T12:02:22.854Z,32328.00
2018-10-21T12:03:22.547Z,33480.00
2018-10-21T12:04:22.624Z,34048.00
2018-10-21T12:05:22.680Z,33744.00
2018-10-21T12:06:22.467Z,32032.00
2018-10-21T12:07:22.396Z,36960.00
2018-10-21T12:08:22.400Z,36544.00
2018-10-21T12:09:22.128Z,41560.00
2018-10-21T12:10:22.284Z,41416.00
2018-10-21T12:11:22.067Z,43640.00
2018-10-21T12:12:22.137Z,40248.00
2018-10-21T12:13:22.192Z,36592.00
2018-10-21T12:14:21.930Z,31424.00
2018-10-21T12:15:21.628Z,31384.00
2018-10-21T12:16:22.667Z,30280.00
2018-10-21T12:17:22.599Z,29568.00
2018-10-21T12:18:18.378Z,27984.00
2018-10-21T12:19:20.104Z,27568.00
2018-10-21T12:20:19.259Z,27168.00
2018-10-21T12:21:19.036Z,26280.00
2018-10-21T12:22:42.810Z,25888.00
2018-10-21T12:23:43.875Z,25048.00
2018-10-21T12:24:42.927Z,24888.00
2018-10-21T12:25:43.073Z,24984.00
2018-10-21T12:26:42.695Z,24960.00
2018-10-21T12:27:44.103Z,24896.00
2018-10-21T12:28:42.894Z,24880.00
2018-10-21T12:29:43.092Z,25040.00
2018-10-21T12:31:29.531Z,25232.00
2018-10-21T12:32:29.199Z,24848.00
2018-10-21T12:33:29.928Z,24856.00
2018-10-21T12:34:29.865Z,24720.00
2018-10-21T12:35:29.880Z,24560.00
2018-10-21T12:36:30.076Z,24376.00
2018-10-21T12:37:29.901Z,24176.00
2018-10-21T12:38:29.847Z,24064.00
2018-10-21T12:39:29.671Z,24120.00
2018-10-21T12:40:29.685Z,24240.00
2018-10-21T12:41:29.765Z,24496.00
2018-10-21T12:42:29.986Z,24632.00
2018-10-21T12:43:29.802Z,24792.00
2018-10-21T12:44:51.878Z,25048.00
2018-10-21T12:45:52.063Z,25824.00
2018-10-21T12:46:52.165Z,26200.00
2018-10-21T12:47:52.673Z,25736.00
2018-10-21T12:48:51.883Z,25288.00
2018-10-21T12:49:51.796Z,27144.00
2018-10-21T12:50:51.733Z,30776.00
2018-10-21T12:51:51.918Z,26904.00
2018-10-21T12:52:51.632Z,26440.00
2018-10-21T12:53:51.542Z,29288.00
2018-10-21T12:54:51.224Z,28888.00
2018-10-21T12:55:52.030Z,26160.00
2018-10-21T12:56:52.019Z,27232.00
2018-10-21T12:58:13.762Z,24880.00
2018-10-21T12:59:13.770Z,23712.00
2018-10-21T13:00:13.607Z,22352.00
2018-10-21T13:01:13.736Z,21504.00
2018-10-21T13:02:14.093Z,20864.00
2018-10-21T13:03:14.134Z,20608.00
2018-10-21T13:04:13.989Z,20168.00
2018-10-21T13:05:35.803Z,20000.00
2018-10-21T13:06:36.907Z,21152.00
2018-10-21T13:07:35.671Z,21440.00
2018-10-21T13:08:36.688Z,21584.00
2018-10-21T13:09:35.686Z,21112.00
2018-10-21T13:10:35.369Z,19184.00
2018-10-21T13:11:36.010Z,18696.00
2018-10-21T13:12:36.458Z,18424.00
2018-10-21T13:13:59.891Z,19360.00
2018-10-21T13:14:59.621Z,18720.00
2018-10-21T13:16:20.763Z,17824.00
2018-10-21T13:17:21.591Z,16525.00
2018-10-21T13:18:21.565Z,16360.00